sensor_id;sensor_type;location;lat;lon;timestamp;pressure;altitude;pressure_sealevel;temperature;humidity
69780;BME280;57052;55.602;38.096;2024-03-25T00:01:05;98560.06;;;7.29;79.68
69780;BME280;57052;55.602;38.096;2024-03-25T00:03:30;98551.19;;;7.28;79.80
69780;BME280;57052;55.602;38.096;2024-03-25T00:05:56;98553.31;;;7.31;79.64
69780;BME280;57052;55.602;38.096;2024-03-25T00:08:22;98540.50;;;7.23;79.90
69780;BME280;57052;55.602;38.096;2024-03-25T00:10:48;98569.41;;;7.36;79.62
69780;BME280;57052;55.602;38.096;2024-03-25T00:13:14;98569.22;;;7.28;79.55
69780;BME280;57052;55.602;38.096;2024-03-25T00:15:40;98585.63;;;7.31;79.53
69780;BME280;57052;55.602;38.096;2024-03-25T00:18:07;98589.81;;;7.19;79.14
69780;BME280;57052;55.602;38.096;2024-03-25T00:20:32;98610.63;;;7.08;78.75
69780;BME280;57052;55.602;38.096;2024-03-25T00:22:58;98618.88;;;6.93;77.37
69780;BME280;57052;55.602;38.096;2024-03-25T00:25:24;98634.53;;;6.86;77.22
69780;BME280;57052;55.602;38.096;2024-03-25T00:27:50;98634.72;;;6.66;77.22
69780;BME280;57052;55.602;38.096;2024-03-25T00:30:16;98654.41;;;6.61;77.37
69780;BME280;57052;55.602;38.096;2024-03-25T00:32:41;98647.75;;;6.54;77.35
69780;BME280;57052;55.602;38.096;2024-03-25T00:35:07;98651.03;;;6.45;77.25
69780;BME280;57052;55.602;38.096;2024-03-25T00:37:33;98653.75;;;6.40;76.93
69780;BME280;57052;55.602;38.096;2024-03-25T00:39:59;98649.75;;;6.38;76.93
69780;BME280;57052;55.602;38.096;2024-03-25T00:42:25;98658.59;;;6.43;76.31
69780;BME280;57052;55.602;38.096;2024-03-25T00:44:51;98665.31;;;6.41;75.97
69780;BME280;57052;55.602;38.096;2024-03-25T00:47:17;98664.81;;;6.34;75.43
69780;BME280;57052;55.602;38.096;2024-03-25T00:49:43;98672.34;;;6.32;75.02
69780;BME280;57052;55.602;38.096;2024-03-25T00:52:08;98679.41;;;6.23;74.77
69780;BME280;57052;55.602;38.096;2024-03-25T00:54:34;98679.41;;;6.23;74.40
69780;BME280;57052;55.602;38.096;2024-03-25T00:57:00;98685.09;;;6.16;74.65
69780;BME280;57052;55.602;38.096;2024-03-25T00:59:26;98696.34;;;6.23;74.38
69780;BME280;57052;55.602;38.096;2024-03-25T01:01:51;98700.09;;;6.22;74.19
69780;BME280;57052;55.602;38.096;2024-03-25T01:04:17;98718.97;;;6.12;73.59
69780;BME280;57052;55.602;38.096;2024-03-25T01:06:43;98716.28;;;6.12;73.34
69780;BME280;57052;55.602;38.096;2024-03-25T01:09:09;98722.25;;;5.99;73.18
69780;BME280;57052;55.602;38.096;2024-03-25T01:11:35;98710.19;;;5.92;73.97
69780;BME280;57052;55.602;38.096;2024-03-25T01:14:01;98729.78;;;5.97;73.76
69780;BME280;57052;55.602;38.096;2024-03-25T01:16:27;98709.19;;;5.72;73.37
69780;BME280;57052;55.602;38.096;2024-03-25T01:18:53;98727.69;;;5.79;73.16
69780;BME280;57052;55.602;38.096;2024-03-25T01:21:19;98728.03;;;5.62;73.44
69780;BME280;57052;55.602;38.096;2024-03-25T01:23:45;98737.09;;;5.71;73.17
69780;BME280;57052;55.602;38.096;2024-03-25T01:26:11;98748.13;;;5.70;73.35
69780;BME280;57052;55.602;38.096;2024-03-25T01:28:36;98747.91;;;5.56;73.63
69780;BME280;57052;55.602;38.096;2024-03-25T01:31:02;98749.50;;;5.57;73.18
69780;BME280;57052;55.602;38.096;2024-03-25T01:33:28;98750.56;;;5.56;73.75
69780;BME280;57052;55.602;38.096;2024-03-25T01:35:54;98747.91;;;5.56;73.64
69780;BME280;57052;55.602;38.096;2024-03-25T01:38:21;98745.53;;;5.45;73.08
69780;BME280;57052;55.602;38.096;2024-03-25T01:40:47;98755.22;;;5.36;73.08
69780;BME280;57052;55.602;38.096;2024-03-25T01:43:13;98743.13;;;5.38;73.03
69780;BME280;57052;55.602;38.096;2024-03-25T01:45:39;98752.53;;;5.36;72.68
69780;BME280;57052;55.602;38.096;2024-03-25T01:48:06;98760.00;;;5.39;72.23
69780;BME280;57052;55.602;38.096;2024-03-25T01:50:36;98752.78;;;5.29;71.53
69780;BME280;57052;55.602;38.096;2024-03-25T01:53:03;98761.13;;;5.33;71.76
69780;BME280;57052;55.602;38.096;2024-03-25T01:55:30;98762.72;;;5.29;71.52
69780;BME280;57052;55.602;38.096;2024-03-25T01:57:58;98768.66;;;5.21;71.85
69780;BME280;57052;55.602;38.096;2024-03-25T02:00:24;98780.97;;;5.22;71.05
69780;BME280;57052;55.602;38.096;2024-03-25T02:02:51;98790.09;;;5.21;71.38
69780;BME280;57052;55.602;38.096;2024-03-25T02:05:17;98787.97;;;5.17;71.81
69780;BME280;57052;55.602;38.096;2024-03-25T02:07:46;98773.22;;;5.10;71.53
69780;BME280;57052;55.602;38.096;2024-03-25T02:10:12;98793.03;;;5.19;71.19
69780;BME280;57052;55.602;38.096;2024-03-25T02:12:43;98801.09;;;5.09;70.93
69780;BME280;57052;55.602;38.096;2024-03-25T02:15:10;98792.25;;;5.08;70.99
69780;BME280;57052;55.602;38.096;2024-03-25T02:17:37;98799.75;;;5.06;70.65
69780;BME280;57052;55.602;38.096;2024-03-25T02:20:04;98803.53;;;5.10;70.69
69780;BME280;57052;55.602;38.096;2024-03-25T02:22:36;98808.59;;;5.02;70.28
69780;BME280;57052;55.602;38.096;2024-03-25T02:25:07;98813.16;;;4.96;69.92
69780;BME280;57052;55.602;38.096;2024-03-25T02:27:34;98808.34;;;4.98;70.46
69780;BME280;57052;55.602;38.096;2024-03-25T02:30:08;98818.53;;;5.01;70.25
69780;BME280;57052;55.602;38.096;2024-03-25T02:32:35;98827.38;;;5.07;70.33
69780;BME280;57052;55.602;38.096;2024-03-25T02:35:02;98815.81;;;4.86;71.33
69780;BME280;57052;55.602;38.096;2024-03-25T02:37:29;98830.34;;;4.95;71.37
69780;BME280;57052;55.602;38.096;2024-03-25T02:39:58;98833.84;;;5.01;71.29
69780;BME280;57052;55.602;38.096;2024-03-25T02:42:28;98813.44;;;4.95;71.53
69780;BME280;57052;55.602;38.096;2024-03-25T02:44:56;98828.19;;;4.92;72.13
69780;BME280;57052;55.602;38.096;2024-03-25T02:47:22;98838.09;;;4.92;72.06
69780;BME280;57052;55.602;38.096;2024-03-25T02:49:48;98844.81;;;4.99;72.19
69780;BME280;57052;55.602;38.096;2024-03-25T02:52:14;98842.38;;;4.83;72.08
69780;BME280;57052;55.602;38.096;2024-03-25T02:54:40;98856.03;;;4.86;71.95
69780;BME280;57052;55.602;38.096;2024-03-25T02:57:06;98852.59;;;4.86;72.17
69780;BME280;57052;55.602;38.096;2024-03-25T02:59:32;98859.00;;;4.90;72.15
69780;BME280;57052;55.602;38.096;2024-03-25T03:01:57;98861.41;;;4.91;71.67
69780;BME280;57052;55.602;38.096;2024-03-25T03:04:23;98865.44;;;4.89;72.02
69780;BME280;57052;55.602;38.096;2024-03-25T03:06:49;98853.63;;;4.85;71.60
69780;BME280;57052;55.602;38.096;2024-03-25T03:09:15;98872.69;;;4.93;71.77
69780;BME280;57052;55.602;38.096;2024-03-25T03:11:41;98875.38;;;4.98;71.67
69780;BME280;57052;55.602;38.096;2024-03-25T03:14:07;98869.19;;;4.88;71.81
69780;BME280;57052;55.602;38.096;2024-03-25T03:16:33;98876.97;;;4.89;71.80
69780;BME280;57052;55.602;38.096;2024-03-25T03:18:58;98882.63;;;4.93;71.57
69780;BME280;57052;55.602;38.096;2024-03-25T03:21:24;98884.47;;;4.92;71.38
69780;BME280;57052;55.602;38.096;2024-03-25T03:23:50;98893.59;;;4.96;71.10
69780;BME280;57052;55.602;38.096;2024-03-25T03:26:16;98892.00;;;4.90;71.49
69780;BME280;57052;55.602;38.096;2024-03-25T03:28:42;98893.59;;;4.96;71.32
69780;BME280;57052;55.602;38.096;2024-03-25T03:31:07;98901.66;;;5.01;71.09
69780;BME280;57052;55.602;38.096;2024-03-25T03:33:33;98898.94;;;4.91;71.52
69780;BME280;57052;55.602;38.096;2024-03-25T03:35:59;98909.97;;;5.00;71.22
69780;BME280;57052;55.602;38.096;2024-03-25T03:38:25;98908.34;;;4.99;71.06
69780;BME280;57052;55.602;38.096;2024-03-25T03:41:01;98918.00;;;5.00;70.65
69780;BME280;57052;55.602;38.096;2024-03-25T03:43:27;98902.75;;;5.00;71.00
69780;BME280;57052;55.602;38.096;2024-03-25T03:45:52;98917.75;;;5.06;70.77
69780;BME280;57052;55.602;38.096;2024-03-25T03:48:18;98922.56;;;5.04;70.92
69780;BME280;57052;55.602;38.096;2024-03-25T03:50:45;98912.66;;;5.10;70.66
69780;BME280;57052;55.602;38.096;2024-03-25T03:53:11;98921.53;;;5.15;70.72
69780;BME280;57052;55.602;38.096;2024-03-25T03:55:36;98905.97;;;5.02;70.16
69780;BME280;57052;55.602;38.096;2024-03-25T03:58:03;98925.03;;;5.16;70.44
69780;BME280;57052;55.602;38.096;2024-03-25T04:00:29;98932.53;;;5.19;69.96
69780;BME280;57052;55.602;38.096;2024-03-25T04:02:54;98938.69;;;5.19;70.41
69780;BME280;57052;55.602;38.096;2024-03-25T04:05:20;98929.84;;;5.24;70.02
69780;BME280;57052;55.602;38.096;2024-03-25T04:07:46;98947.81;;;5.29;70.07
69780;BME280;57052;55.602;38.096;2024-03-25T04:10:12;98956.66;;;5.24;69.47
69780;BME280;57052;55.602;38.096;2024-03-25T04:12:39;98961.22;;;5.18;69.44
69780;BME280;57052;55.602;38.096;2024-03-25T04:15:05;98934.94;;;5.05;69.55
69780;BME280;57052;55.602;38.096;2024-03-25T04:17:31;98969.25;;;5.18;69.32
69780;BME280;57052;55.602;38.096;2024-03-25T04:20:00;98974.09;;;5.16;69.51
69780;BME280;57052;55.602;38.096;2024-03-25T04:22:26;98977.59;;;5.17;69.57
69780;BME280;57052;55.602;38.096;2024-03-25T04:24:52;98979.47;;;5.16;69.00
69780;BME280;57052;55.602;38.096;2024-03-25T04:27:17;98992.06;;;5.21;68.96
69780;BME280;57052;55.602;38.096;2024-03-25T04:29:46;98984.84;;;5.27;68.83
69780;BME280;57052;55.602;38.096;2024-03-25T04:32:12;98984.81;;;5.16;68.83
69780;BME280;57052;55.602;38.096;2024-03-25T04:34:38;98999.88;;;5.28;68.52
69780;BME280;57052;55.602;38.096;2024-03-25T04:37:04;98989.69;;;5.25;68.70
69780;BME280;57052;55.602;38.096;2024-03-25T04:39:30;98986.72;;;5.31;68.89
69780;BME280;57052;55.602;38.096;2024-03-25T04:41:56;98993.72;;;5.42;68.67
69780;BME280;57052;55.602;38.096;2024-03-25T04:44:22;98999.41;;;5.51;68.91
69780;BME280;57052;55.602;38.096;2024-03-25T04:46:47;98999.94;;;5.53;68.42
69780;BME280;57052;55.602;38.096;2024-03-25T04:49:13;98988.09;;;5.39;67.73
69780;BME280;57052;55.602;38.096;2024-03-25T04:51:39;99010.91;;;5.51;68.04
69780;BME280;57052;55.602;38.096;2024-03-25T04:54:05;99021.94;;;5.55;68.00
69780;BME280;57052;55.602;38.096;2024-03-25T04:56:30;99026.22;;;5.51;68.08
69780;BME280;57052;55.602;38.096;2024-03-25T04:58:57;99030.53;;;5.57;67.44
69780;BME280;57052;55.602;38.096;2024-03-25T05:01:30;99038.56;;;5.57;67.36
69780;BME280;57052;55.602;38.096;2024-03-25T05:03:55;99023.25;;;5.42;67.54
69780;BME280;57052;55.602;38.096;2024-03-25T05:06:21;99042.34;;;5.61;67.63
69780;BME280;57052;55.602;38.096;2024-03-25T05:08:47;99028.09;;;5.50;67.45
69780;BME280;57052;55.602;38.096;2024-03-25T05:11:12;99042.34;;;5.61;67.31
69780;BME280;57052;55.602;38.096;2024-03-25T05:13:38;99052.28;;;5.55;66.94
69780;BME280;57052;55.602;38.096;2024-03-25T05:16:04;99061.41;;;5.59;67.05
69780;BME280;57052;55.602;38.096;2024-03-25T05:18:30;99075.38;;;5.66;66.89
69780;BME280;57052;55.602;38.096;2024-03-25T05:20:56;99072.63;;;5.51;66.82
69780;BME280;57052;55.602;38.096;2024-03-25T05:23:21;99066.16;;;5.32;66.64
69780;BME280;57052;55.602;38.096;2024-03-25T05:25:48;99080.97;;;5.45;66.76
69780;BME280;57052;55.602;38.096;2024-03-25T05:28:13;99094.38;;;5.45;66.60
69780;BME280;57052;55.602;38.096;2024-03-25T05:30:39;99093.03;;;5.42;66.44
69780;BME280;57052;55.602;38.096;2024-03-25T05:33:05;99106.75;;;5.51;66.55
69780;BME280;57052;55.602;38.096;2024-03-25T05:35:30;99112.91;;;5.56;66.44
69780;BME280;57052;55.602;38.096;2024-03-25T05:37:59;99103.28;;;5.60;65.92
69780;BME280;57052;55.602;38.096;2024-03-25T05:40:25;99103.78;;;5.52;66.06
69780;BME280;57052;55.602;38.096;2024-03-25T05:42:50;99104.31;;;5.54;65.94
69780;BME280;57052;55.602;38.096;2024-03-25T05:45:16;99108.38;;;5.57;65.68
69780;BME280;57052;55.602;38.096;2024-03-25T05:47:42;99109.19;;;5.67;66.01
69780;BME280;57052;55.602;38.096;2024-03-25T05:50:08;99114.59;;;5.72;65.55
69780;BME280;57052;55.602;38.096;2024-03-25T05:52:34;99117.25;;;5.67;65.17
69780;BME280;57052;55.602;38.096;2024-03-25T05:55:01;99123.44;;;5.63;65.90
69780;BME280;57052;55.602;38.096;2024-03-25T05:57:27;99118.31;;;5.71;65.25
69780;BME280;57052;55.602;38.096;2024-03-25T05:59:52;99118.63;;;5.75;64.87
69780;BME280;57052;55.602;38.096;2024-03-25T06:02:18;99124.78;;;5.65;65.45
69780;BME280;57052;55.602;38.096;2024-03-25T06:04:44;99133.69;;;5.81;65.23
69780;BME280;57052;55.602;38.096;2024-03-25T06:07:09;99129.13;;;5.87;64.89
69780;BME280;57052;55.602;38.096;2024-03-25T06:09:35;99134.25;;;5.88;64.67
69780;BME280;57052;55.602;38.096;2024-03-25T06:12:01;99139.13;;;5.96;64.34
69780;BME280;57052;55.602;38.096;2024-03-25T06:14:26;99139.66;;;6.03;64.48
69780;BME280;57052;55.602;38.096;2024-03-25T06:16:52;99127.28;;;6.02;64.26
69780;BME280;57052;55.602;38.096;2024-03-25T06:19:18;99139.38;;;6.10;63.82
69780;BME280;57052;55.602;38.096;2024-03-25T06:21:44;99135.66;;;6.16;64.09
69780;BME280;57052;55.602;38.096;2024-03-25T06:24:10;99150.44;;;6.23;63.99
69780;BME280;57052;55.602;38.096;2024-03-25T06:26:36;99160.63;;;6.26;63.66
69780;BME280;57052;55.602;38.096;2024-03-25T06:29:02;99167.09;;;6.40;63.57
69780;BME280;57052;55.602;38.096;2024-03-25T06:31:28;99171.38;;;6.52;63.59
69780;BME280;57052;55.602;38.096;2024-03-25T06:34:12;99176.22;;;6.60;63.38
69780;BME280;57052;55.602;38.096;2024-03-25T06:36:50;99185.66;;;6.57;62.77
69780;BME280;57052;55.602;38.096;2024-03-25T06:39:16;99190.78;;;6.64;62.66
69780;BME280;57052;55.602;38.096;2024-03-25T06:41:42;99196.69;;;6.71;62.42
69780;BME280;57052;55.602;38.096;2024-03-25T06:44:08;99196.69;;;6.76;62.84
69780;BME280;57052;55.602;38.096;2024-03-25T06:46:33;99204.22;;;6.84;62.67
69780;BME280;57052;55.602;38.096;2024-03-25T06:48:59;99210.91;;;6.91;62.63
69780;BME280;57052;55.602;38.096;2024-03-25T06:51:25;99211.72;;;6.97;62.66
69780;BME280;57052;55.602;38.096;2024-03-25T06:53:52;99215.50;;;7.06;62.48
69780;BME280;57052;55.602;38.096;2024-03-25T06:56:17;99215.47;;;7.11;61.50
69780;BME280;57052;55.602;38.096;2024-03-25T06:58:43;99219.50;;;7.14;61.74
69780;BME280;57052;55.602;38.096;2024-03-25T07:01:09;99218.94;;;7.22;61.24
69780;BME280;57052;55.602;38.096;2024-03-25T07:03:39;99231.84;;;7.25;60.58
69780;BME280;57052;55.602;38.096;2024-03-25T07:06:05;99237.25;;;7.25;61.30
69780;BME280;57052;55.602;38.096;2024-03-25T07:08:31;99241.28;;;7.27;60.91
69780;BME280;57052;55.602;38.096;2024-03-25T07:10:57;99249.63;;;7.31;60.77
69780;BME280;57052;55.602;38.096;2024-03-25T07:13:23;99255.28;;;7.24;60.08
69780;BME280;57052;55.602;38.096;2024-03-25T07:15:50;99250.97;;;7.28;61.07
69780;BME280;57052;55.602;38.096;2024-03-25T07:18:16;99249.34;;;7.27;59.94
69780;BME280;57052;55.602;38.096;2024-03-25T07:20:43;99263.91;;;7.26;60.46
69780;BME280;57052;55.602;38.096;2024-03-25T07:23:09;99257.19;;;7.19;60.73
69780;BME280;57052;55.602;38.096;2024-03-25T07:25:35;99270.63;;;7.24;60.16
69780;BME280;57052;55.602;38.096;2024-03-25T07:28:02;99272.50;;;7.33;60.22
69780;BME280;57052;55.602;38.096;2024-03-25T07:30:28;99275.19;;;7.43;60.07
69780;BME280;57052;55.602;38.096;2024-03-25T07:32:55;99268.97;;;7.53;60.44
69780;BME280;57052;55.602;38.096;2024-03-25T07:35:20;99270.56;;;7.64;60.17
69780;BME280;57052;55.602;38.096;2024-03-25T07:37:46;99276.69;;;7.74;59.83
69780;BME280;57052;55.602;38.096;2024-03-25T07:40:12;99276.94;;;7.83;59.26
69780;BME280;57052;55.602;38.096;2024-03-25T07:42:38;99285.25;;;7.92;59.54
69780;BME280;57052;55.602;38.096;2024-03-25T07:45:05;99289.59;;;7.88;58.94
69780;BME280;57052;55.602;38.096;2024-03-25T07:47:32;99289.06;;;7.86;58.71
69780;BME280;57052;55.602;38.096;2024-03-25T07:49:59;99273.75;;;7.76;58.53
69780;BME280;57052;55.602;38.096;2024-03-25T07:52:26;99283.91;;;7.89;58.78
69780;BME280;57052;55.602;38.096;2024-03-25T07:54:52;99282.28;;;7.98;58.13
69780;BME280;57052;55.602;38.096;2024-03-25T07:57:18;99286.22;;;8.21;58.20
69780;BME280;57052;55.602;38.096;2024-03-25T07:59:47;99289.19;;;8.29;57.86
69780;BME280;57052;55.602;38.096;2024-03-25T08:02:14;99287.00;;;8.36;57.73
69780;BME280;57052;55.602;38.096;2024-03-25T08:04:40;99297.47;;;8.43;57.64
69780;BME280;57052;55.602;38.096;2024-03-25T08:07:05;99292.06;;;8.48;57.28
69780;BME280;57052;55.602;38.096;2024-03-25T08:09:50;99297.69;;;8.57;57.57
69780;BME280;57052;55.602;38.096;2024-03-25T08:12:15;99300.63;;;8.55;56.80
69780;BME280;57052;55.602;38.096;2024-03-25T08:14:41;99303.66;;;8.49;56.94
69780;BME280;57052;55.602;38.096;2024-03-25T08:17:09;99306.59;;;8.47;56.86
69780;BME280;57052;55.602;38.096;2024-03-25T08:19:34;99304.16;;;8.56;56.97
69780;BME280;57052;55.602;38.096;2024-03-25T08:22:00;99294.41;;;8.60;57.12
69780;BME280;57052;55.602;38.096;2024-03-25T08:24:26;99297.34;;;8.63;56.51
69780;BME280;57052;55.602;38.096;2024-03-25T08:26:51;99298.66;;;8.71;56.90
69780;BME280;57052;55.602;38.096;2024-03-25T08:29:17;99303.22;;;8.75;56.38
69780;BME280;57052;55.602;38.096;2024-03-25T08:31:43;99303.69;;;8.82;55.92
69780;BME280;57052;55.602;38.096;2024-03-25T08:34:09;99299.47;;;8.71;56.09
69780;BME280;57052;55.602;38.096;2024-03-25T08:36:34;99311.75;;;8.87;55.76
69780;BME280;57052;55.602;38.096;2024-03-25T08:39:00;99311.41;;;8.99;56.31
69780;BME280;57052;55.602;38.096;2024-03-25T08:41:26;99315.41;;;9.07;55.62
69780;BME280;57052;55.602;38.096;2024-03-25T08:43:51;99312.94;;;9.10;55.33
69780;BME280;57052;55.602;38.096;2024-03-25T08:46:17;99313.16;;;9.19;54.96
69780;BME280;57052;55.602;38.096;2024-03-25T08:48:43;99309.31;;;9.25;54.85
69780;BME280;57052;55.602;38.096;2024-03-25T08:51:08;99302.06;;;9.20;54.71
69780;BME280;57052;55.602;38.096;2024-03-25T08:53:34;99300.72;;;9.18;54.50
69780;BME280;57052;55.602;38.096;2024-03-25T08:56:00;99292.66;;;9.13;54.35
69780;BME280;57052;55.602;38.096;2024-03-25T08:58:25;99300.22;;;9.16;54.71
69780;BME280;57052;55.602;38.096;2024-03-25T09:00:51;99318.22;;;9.25;53.94
69780;BME280;57052;55.602;38.096;2024-03-25T09:03:17;99319.19;;;9.39;54.30
69780;BME280;57052;55.602;38.096;2024-03-25T09:05:43;99313.66;;;9.49;53.94
69780;BME280;57052;55.602;38.096;2024-03-25T09:08:09;99318.16;;;9.64;53.80
69780;BME280;57052;55.602;38.096;2024-03-25T09:10:39;99324.22;;;9.75;53.19
69780;BME280;57052;55.602;38.096;2024-03-25T09:13:23;99331.97;;;9.86;53.31
69780;BME280;57052;55.602;38.096;2024-03-25T09:15:49;99340.22;;;9.95;53.25
69780;BME280;57052;55.602;38.096;2024-03-25T09:18:15;99325.94;;;9.94;52.72
69780;BME280;57052;55.602;38.096;2024-03-25T09:20:40;99341.09;;;10.19;52.72
69780;BME280;57052;55.602;38.096;2024-03-25T09:23:06;99343.88;;;10.32;52.70
69780;BME280;57052;55.602;38.096;2024-03-25T09:25:33;99348.16;;;10.39;52.16
69780;BME280;57052;55.602;38.096;2024-03-25T09:27:58;99333.50;;;10.40;52.09
69780;BME280;57052;55.602;38.096;2024-03-25T09:30:24;99323.16;;;10.47;51.75
69780;BME280;57052;55.602;38.096;2024-03-25T09:32:50;99332.59;;;10.68;51.90
69780;BME280;57052;55.602;38.096;2024-03-25T09:35:16;99335.53;;;10.90;51.53
69780;BME280;57052;55.602;38.096;2024-03-25T09:37:41;99346.53;;;10.99;50.68
69780;BME280;57052;55.602;38.096;2024-03-25T09:40:08;99342.56;;;11.10;50.86
69780;BME280;57052;55.602;38.096;2024-03-25T09:42:58;99339.78;;;11.15;46.67
69780;BME280;57052;55.602;38.096;2024-03-25T09:45:28;99344.94;;;11.30;50.36
69780;BME280;57052;55.602;38.096;2024-03-25T09:47:55;99289.00;;;11.20;50.09
69780;BME280;57052;55.602;38.096;2024-03-25T09:50:21;99338.09;;;11.83;50.51
69780;BME280;57052;55.602;38.096;2024-03-25T09:52:48;99339.00;;;12.06;49.89
69780;BME280;57052;55.602;38.096;2024-03-25T09:55:15;99334.81;;;12.27;49.49
69780;BME280;57052;55.602;38.096;2024-03-25T09:57:42;99347.03;;;12.38;48.71
69780;BME280;57052;55.602;38.096;2024-03-25T10:00:09;99341.63;;;12.38;48.16
69780;BME280;57052;55.602;38.096;2024-03-25T10:02:38;99340.50;;;12.53;47.78
69780;BME280;57052;55.602;38.096;2024-03-25T10:05:05;99338.13;;;12.24;47.62
69780;BME280;57052;55.602;38.096;2024-03-25T10:07:30;99338.63;;;12.40;47.78
69780;BME280;57052;55.602;38.096;2024-03-25T10:09:56;99344.13;;;12.48;47.35
69780;BME280;57052;55.602;38.096;2024-03-25T10:12:24;99337.78;;;12.66;47.90
69780;BME280;57052;55.602;38.096;2024-03-25T10:14:50;99341.25;;;12.80;46.85
69780;BME280;57052;55.602;38.096;2024-03-25T10:17:16;99342.25;;;12.84;46.41
69780;BME280;57052;55.602;38.096;2024-03-25T10:19:41;99342.31;;;12.93;46.18
69780;BME280;57052;55.602;38.096;2024-03-25T10:22:08;99342.53;;;12.97;46.35
69780;BME280;57052;55.602;38.096;2024-03-25T10:24:42;99345.72;;;12.99;43.66
69780;BME280;57052;55.602;38.096;2024-03-25T10:29:43;99340.41;;;12.94;45.97
69780;BME280;57052;55.602;38.096;2024-03-25T10:32:09;99339.91;;;12.92;45.89
69780;BME280;57052;55.602;38.096;2024-03-25T10:34:35;99342.59;;;13.05;45.88
69780;BME280;57052;55.602;38.096;2024-03-25T10:37:01;99342.00;;;13.30;45.85
69780;BME280;57052;55.602;38.096;2024-03-25T10:39:31;99336.81;;;13.65;44.26
69780;BME280;57052;55.602;38.096;2024-03-25T10:41:58;99329.44;;;13.87;44.43
69780;BME280;57052;55.602;38.096;2024-03-25T10:44:27;99339.16;;;14.19;44.19
69780;BME280;57052;55.602;38.096;2024-03-25T10:47:01;99338.66;;;14.48;41.79
69780;BME280;57052;55.602;38.096;2024-03-25T10:52:05;99344.34;;;15.03;42.32
69780;BME280;57052;55.602;38.096;2024-03-25T10:54:33;99350.25;;;15.22;40.88
69780;BME280;57052;55.602;38.096;2024-03-25T10:57:03;99340.00;;;15.10;40.96
69780;BME280;57052;55.602;38.096;2024-03-25T10:59:30;99354.28;;;15.24;41.70
69780;BME280;57052;55.602;38.096;2024-03-25T11:01:56;99322.34;;;15.33;41.83
69780;BME280;57052;55.602;38.096;2024-03-25T11:04:23;99351.22;;;15.52;40.96
69780;BME280;57052;55.602;38.096;2024-03-25T11:06:49;99349.78;;;15.63;41.28
69780;BME280;57052;55.602;38.096;2024-03-25T11:09:24;99351.06;;;15.57;37.60
69780;BME280;57052;55.602;38.096;2024-03-25T11:11:54;99346.88;;;15.59;40.92
69780;BME280;57052;55.602;38.096;2024-03-25T11:14:20;99349.13;;;15.57;40.70
69780;BME280;57052;55.602;38.096;2024-03-25T11:16:55;99351.56;;;15.50;37.82
69780;BME280;57052;55.602;38.096;2024-03-25T11:19:26;99347.84;;;15.46;38.99
69780;BME280;57052;55.602;38.096;2024-03-25T11:21:52;99346.41;;;15.31;40.37
69780;BME280;57052;55.602;38.096;2024-03-25T11:24:30;99361.00;;;15.27;36.61
69780;BME280;57052;55.602;38.096;2024-03-25T11:26:56;99365.00;;;15.29;39.99
69780;BME280;57052;55.602;38.096;2024-03-25T11:29:22;99360.50;;;15.33;40.03
69780;BME280;57052;55.602;38.096;2024-03-25T11:31:52;99368.22;;;15.49;37.75
69780;BME280;57052;55.602;38.096;2024-03-25T11:34:21;99351.69;;;15.62;38.18
69780;BME280;57052;55.602;38.096;2024-03-25T11:36:47;99350.53;;;15.72;39.06
69780;BME280;57052;55.602;38.096;2024-03-25T11:39:14;99366.22;;;15.92;38.83
69780;BME280;57052;55.602;38.096;2024-03-25T11:41:40;99364.81;;;15.77;38.65
69780;BME280;57052;55.602;38.096;2024-03-25T11:44:10;99357.53;;;15.98;37.87
69780;BME280;57052;55.602;38.096;2024-03-25T11:46:38;99355.06;;;16.14;38.23
69780;BME280;57052;55.602;38.096;2024-03-25T11:49:13;99361.72;;;16.34;35.69
69780;BME280;57052;55.602;38.096;2024-03-25T11:51:40;99365.53;;;16.50;38.12
69780;BME280;57052;55.602;38.096;2024-03-25T11:54:10;99365.91;;;16.69;37.03
69780;BME280;57052;55.602;38.096;2024-03-25T11:56:36;99373.72;;;16.79;37.10
69780;BME280;57052;55.602;38.096;2024-03-25T11:59:05;99381.22;;;16.91;37.00
69780;BME280;57052;55.602;38.096;2024-03-25T12:01:32;99379.78;;;16.93;36.71
69780;BME280;57052;55.602;38.096;2024-03-25T12:04:09;99381.63;;;17.01;34.10
69780;BME280;57052;55.602;38.096;2024-03-25T12:06:35;99380.56;;;16.94;36.72
69780;BME280;57052;55.602;38.096;2024-03-25T12:09:01;99377.53;;;16.87;36.55
69780;BME280;57052;55.602;38.096;2024-03-25T12:11:45;99365.59;;;16.71;36.48
69780;BME280;57052;55.602;38.096;2024-03-25T12:14:11;99374.00;;;16.65;36.72
69780;BME280;57052;55.602;38.096;2024-03-25T12:16:37;99369.44;;;16.40;36.49
69780;BME280;57052;55.602;38.096;2024-03-25T12:19:03;99384.53;;;16.38;36.47
69780;BME280;57052;55.602;38.096;2024-03-25T12:21:31;99378.00;;;16.22;35.41
69780;BME280;57052;55.602;38.096;2024-03-25T12:23:56;99395.22;;;16.14;36.38
69780;BME280;57052;55.602;38.096;2024-03-25T12:26:24;99386.44;;;15.91;36.66
69780;BME280;57052;55.602;38.096;2024-03-25T12:28:49;99389.53;;;15.81;36.84
69780;BME280;57052;55.602;38.096;2024-03-25T12:31:16;99404.00;;;15.73;36.71
69780;BME280;57052;55.602;38.096;2024-03-25T12:33:42;99382.69;;;15.58;36.81
69780;BME280;57052;55.602;38.096;2024-03-25T12:36:08;99384.13;;;15.55;37.11
69780;BME280;57052;55.602;38.096;2024-03-25T12:38:34;99387.97;;;15.63;37.19
69780;BME280;57052;55.602;38.096;2024-03-25T12:41:10;99391.31;;;15.68;34.71
69780;BME280;57052;55.602;38.096;2024-03-25T12:43:42;99384.41;;;15.79;35.88
69780;BME280;57052;55.602;38.096;2024-03-25T12:46:07;99381.16;;;15.86;37.02
69780;BME280;57052;55.602;38.096;2024-03-25T12:48:35;99383.88;;;15.86;37.01
69780;BME280;57052;55.602;38.096;2024-03-25T12:51:01;99391.94;;;15.82;37.02
69780;BME280;57052;55.602;38.096;2024-03-25T12:53:26;99386.63;;;15.86;36.99
69780;BME280;57052;55.602;38.096;2024-03-25T12:55:52;99383.44;;;15.84;36.44
69780;BME280;57052;55.602;38.096;2024-03-25T12:58:18;99393.88;;;15.73;36.82
69780;BME280;57052;55.602;38.096;2024-03-25T13:00:44;99393.44;;;15.63;36.71